• Join FlightAware (Why Join?)
  • Login
  • US Flag 
10:34PM EDT


 

Airport Tracker/Info


-or-


 

Live Flight TrackerFlight Track Log ✈ DAL2369 ✈ 25-Jul-2013 ✈ KMCO - KATL

Flight Track Log - Related Links

Times and Time Zones

All times are in EDT time to prevent confusion due to time zone crossing. See the DAL2369 flight status page for this flight to view local times or setup timezone preferences in your user account.

Time Position Orientation Groundspeed Altitude Reporting Facility
EDT Latitude Longitude Course Direction KTS MPH feet Rate Location/Type
03:41PM 28.3870 -81.2920 154° Southeast 195 224 1,500  Level FlightAware
03:41PM 28.3670 -81.2780 148° Southeast 229 264 2,100 1,380 Climbing FlightAware
03:41PM 28.3550 -81.2570 123° Southeast 263 303 2,500 2,040 Climbing FlightAware
03:42PM 28.3440 -81.2170 107° East 289 333 3,700 2,820 Climbing FlightAware
03:42PM 28.3470 -81.1720 86° East 296 341 5,200 3,000 Climbing FlightAware
03:43PM 28.3500 -81.1560 78° East 295 339 5,700 2,460 Climbing FlightAware
03:43PM 28.3600 -81.1380 58° Northeast 295 339 6,200 2,640 Climbing FlightAware
03:43PM 28.3850 -81.1230 28° Northeast 277 319 7,300 3,000 Climbing FlightAware
03:43PM 28.4090 -81.1220 North 270 311 8,300 2,820 Climbing FlightAware
03:44PM 28.4410 -81.1310 346° North 269 310 9,500 2,340 Climbing FlightAware
03:45PM 28.4860 -81.1490 341° North 295 339 10,800 1,560 Climbing FlightAware
03:45PM 28.5620 -81.1810 340° North 348 400 11,900 1,320 Climbing FlightAware
03:47PM 28.6220 -81.2190 331° Northwest 353 406 13,900 1,740 Climbing FlightAware
03:48PM 28.6260 -81.2210 336° Northwest 353 406 15,500 1,140 Climbing FlightAware
03:48PM 28.6690 -81.2490 330° Northwest 353 406 15,500  Level FlightAware
03:49PM 28.7280 -81.2850 332° Northwest 353 406 15,500  Level FlightAware
03:50PM 28.7720 -81.3140 330° Northwest 353 406 15,500  Level FlightAware
03:50PM 28.8310 -81.3510 331° Northwest 353 406 15,500  Level FlightAware
03:51PM 28.8740 -81.3780 331° Northwest 353 406 15,500 5,820 Level FlightAware
03:52PM 29.1919 -81.4750 331° Northwest 412 474 23,400 5,280 Climbing Jacksonville Center
03:53PM 29.2947 -81.5164 341° North 417 480 24,800 1,260 Climbing Jacksonville Center
03:58PM 29.9520 -81.7900 341° North 451 519 31,500 1,080 Climbing FlightAware
03:59PM 30.0200 -81.8190 340° North 451 519 31,600 1,140 Climbing FlightAware
04:00PM 30.1220 -81.8610 340° North 459 528 33,200 960 Climbing FlightAware
04:00PM 30.2070 -81.8970 340° North 459 528 33,200 720 Level FlightAware
04:02PM 30.1710 -81.8560 135° Southeast 467 537 34,800 780 Climbing FlightAware
04:02PM 30.2390 -81.8490 North 467 537 34,800 120 Level FlightAware
04:03PM 30.1910 -81.8600 191° South 465 535 35,000 120 Climbing FlightAware
04:04PM 30.2570 -81.8580 North 465 535 35,000  Level FlightAware
04:04PM 30.3250 -81.8570 North 465 535 35,000  Level FlightAware
04:05PM 30.4120 -81.8550 North 465 535 35,000  Level FlightAware
04:06PM 30.4800 -81.8540 North 465 535 35,000  Level FlightAware
04:06PM 30.5480 -81.8520 North 465 535 35,000  Level FlightAware
04:07PM 30.6150 -81.8510 North 465 535 35,000  Level FlightAware
04:08PM 30.7250 -81.8490 North 465 535 35,000  Level FlightAware
04:09PM 31.2417 -82.1903 North 455 524 35,000  Level Jacksonville Center
04:10PM 31.3569 -82.2456 338° Northwest 455 524 35,000  Level Jacksonville Center
04:11PM 31.4719 -82.3006 338° Northwest 443 510 35,000  Level Jacksonville Center
04:12PM 31.6689 -82.3942 338° Northwest 424 488 35,000  Level Atlanta Center
04:13PM 31.7822 -82.4483 338° Northwest 424 488 35,000 -360 Level Atlanta Center
04:19PM 32.4040 -82.7630 338° Northwest 433 498 33,000 -360 Descending FlightAware
04:19PM 32.4650 -82.7940 337° Northwest 433 498 33,000  Level FlightAware
04:20PM 32.5210 -82.8220 337° Northwest 433 498 33,000  Level FlightAware
04:21PM 32.5780 -82.8510 337° Northwest 433 498 33,000  Level FlightAware
04:22PM 32.6540 -82.8890 337° Northwest 433 498 33,000 -3,300 Level FlightAware
04:22PM 32.7060 -83.0430 292° West 421 484 28,300 -3,840 Descending FlightAware
04:23PM 32.7650 -83.1320 308° West 414 476 27,200 -2,460 Descending FlightAware
04:24PM 32.8220 -83.2150 309° West 394 453 24,400 -3,240 Descending FlightAware
04:24PM 32.8640 -83.2770 309° West 383 441 22,900 -2,400 Descending FlightAware
04:25PM 32.9110 -83.3470 309° West 374 430 21,200 -2,340 Descending FlightAware
04:26PM 32.9550 -83.4120 309° West 379 436 19,700 -2,400 Descending FlightAware
04:27PM 33.0050 -83.4880 308° West 389 448 17,900 -1,380 Descending FlightAware
04:27PM 33.0400 -83.5410 308° West 389 448 17,900  Level FlightAware
04:28PM 33.0830 -83.6070 308° West 389 448 17,900 -3,480 Level FlightAware
04:29PM 33.1360 -83.6840 309° West 374 430 13,100 -4,440 Descending FlightAware
04:29PM 33.1750 -83.7420 309° West 347 399 12,400 -780 Descending FlightAware
04:30PM 33.2150 -83.8010 309° West 310 357 12,100 -240 Descending FlightAware
04:31PM 33.2510 -83.8550 309° West 310 357 12,100  Level FlightAware
04:31PM 33.2710 -83.8860 308° West 310 357 12,100 -2,280 Level FlightAware
04:32PM 33.3090 -83.9420 309° West 287 330 9,600 -2,880 Descending FlightAware
04:32PM 33.3350 -83.9810 309° West 286 329 8,800 -1,440 Descending FlightAware
04:33PM 33.3580 -84.0160 308° West 284 327 8,200 -1,140 Descending FlightAware
04:33PM 33.3840 -84.0430 319° Northwest 279 321 7,800 -1,320 Descending FlightAware
04:34PM 33.4190 -84.0620 336° Northwest 274 315 7,000 -1,920 Descending FlightAware
04:34PM 33.4530 -84.0800 336° Northwest 274 315 6,000 -1,200 Descending FlightAware
04:35PM 33.4850 -84.0970 336° Northwest 274 315 5,800 -1,440 Descending FlightAware
04:35PM 33.5180 -84.1120 339° North 272 313 4,700 -2,100 Descending FlightAware
04:35PM 33.5460 -84.1260 337° Northwest 270 311 4,200 -1,500 Descending FlightAware
04:36PM 33.5640 -84.1350 337° Northwest 270 311 3,700 -1,500 Descending FlightAware
04:36PM 33.5970 -84.1520 337° Northwest 265 305 3,100 -1,080 Descending FlightAware
04:36PM 33.6090 -84.1610 328° Northwest 258 297 3,000 -300 Descending FlightAware
04:37PM 33.6180 -84.1740 310° West 243 280 3,000  Level FlightAware
04:37PM 33.6340 -84.2110 297° West 224 258 3,000  Level FlightAware
04:38PM 33.6460 -84.2420 295° West 216 249 3,000  Level FlightAware
04:38PM 33.6480 -84.2710 275° West 191 220 3,000  Level FlightAware
04:38PM 33.6480 -84.2930 270° West 186 214 3,000 -360 Level FlightAware
04:39PM 33.6480 -84.3100 270° West 191 220 2,800 -900 Descending FlightAware
04:39PM 33.6480 -84.3440 270° West 183 211 2,300 -840 Descending FlightAware
04:40PM 33.6480 -84.3710 270° West 157 181 2,000 -780 Descending FlightAware
04:40PM 33.6480 -84.3930 270° West 141 162 1,600 -780 Descending FlightAware
04:41PM 33.6480 -84.4130 270° West 136 157 1,300 -720 Descending FlightAware
04:41PM 33.6480 -84.4320 270° West 138 159 1,000 -780 Descending FlightAware
04:41PM 33.6480 -84.4500 270° West 58 67 -2,040 Descending FlightAware
04:42PM 33.6490 -84.4550 284° West 21 24  Level FlightAware
04:42PM 33.6490 -84.4560 270° West 19 22  Level FlightAware
04:43PM 33.6500 -84.4610 284° West 15 17  Level FlightAware